Time;durP1;ratioP1;P1;durP2;ratioP2;P2;SDS_P1;SDS_P2;PMS_P1;PMS_P2;Temp;Humidity;BMP_temperature;BMP_pressure;BME280_temperature;BME280_humidity;BME280_pressure;Samples;Min_cycle;Max_cycle;Signal;HPM_P1;HPM_P2
2024/01/09 00:02:23;;;;;;;;;;;11.50;83.10;;;;;;5039067;28;19897;-82
2024/01/09 00:04:48;;;;;;;;;;;11.90;83.40;;;;;;5039368;28;19953;-82
2024/01/09 00:07:14;;;;;;;;;;;11.80;83.30;;;;;;5038620;28;19925;-82
2024/01/09 00:09:40;;;;;;;;;;;11.60;83.20;;;;;;5038782;28;19921;-82
2024/01/09 00:12:05;;;;;;;;;;;12.30;83.60;;;;;;5039386;28;19921;-83
2024/01/09 00:14:31;;;;;;;;;;;11.50;83.10;;;;;;5038299;28;19897;-81
2024/01/09 00:16:57;;;;;;;;;;;11.50;83.10;;;;;;5038689;28;19904;-82
2024/01/09 00:19:22;;;;;;;;;;;11.50;83.10;;;;;;5057462;28;19952;-82
2024/01/09 00:21:49;;;;;;;;;;;11.50;83.20;;;;;;5038663;28;19897;-82
2024/01/09 00:24:15;;;;;;;;;;;11.50;83.10;;;;;;5038984;28;19920;-82
2024/01/09 00:27:01;;;;;;;;;;;12.30;83.60;;;;;;5037636;28;20350;-82
2024/01/09 00:29:26;;;;;;;;;;;11.70;83.20;;;;;;5037777;28;19909;-82
2024/01/09 00:31:52;;;;;;;;;;;11.60;83.10;;;;;;5037148;28;19905;-83
2024/01/09 00:34:17;;;;;;;;;;;11.50;83.10;;;;;;5038132;28;19952;-82
2024/01/09 00:36:43;;;;;;;;;;;11.50;83.10;;;;;;5036093;28;19914;-82
2024/01/09 00:39:09;;;;;;;;;;;11.50;83.10;;;;;;5038767;28;19913;-82
2024/01/09 00:41:34;;;;;;;;;;;11.50;83.10;;;;;;5020998;28;19917;-81
2024/01/09 00:44:00;;;;;;;;;;;12.30;83.60;;;;;;5038007;28;19960;-83
2024/01/09 00:46:26;;;;;;;;;;;11.50;83.10;;;;;;5038421;28;19909;-83
2024/01/09 00:48:52;;;;;;;;;;;11.60;83.10;;;;;;5056159;28;19893;-81
2024/01/09 00:51:17;;;;;;;;;;;11.50;83.00;;;;;;5038731;28;19995;-84
2024/01/09 00:53:43;;;;;;;;;;;11.50;83.00;;;;;;5038740;28;19977;-82
2024/01/09 00:56:08;;;;;;;;;;;11.50;83.00;;;;;;5037879;28;19909;-81
2024/01/09 00:58:34;;;;;;;;;;;11.50;83.00;;;;;;5039131;28;19987;-82
2024/01/09 01:00:59;;;;;;;;;;;11.50;83.10;;;;;;5037368;28;19893;-82
2024/01/09 01:03:25;;;;;;;;;;;11.50;83.00;;;;;;5037955;28;20427;-81
2024/01/09 01:05:51;;;;;;;;;;;11.50;83.10;;;;;;5037523;28;19916;-82
2024/01/09 01:08:16;;;;;;;;;;;11.20;82.90;;;;;;5038663;28;19915;-86
2024/01/09 01:10:42;;;;;;;;;;;11.70;83.20;;;;;;5039772;28;19905;-82
2024/01/09 01:13:07;;;;;;;;;;;11.50;83.00;;;;;;5041223;28;19916;-82
2024/01/09 01:15:33;;;;;;;;;;;11.50;83.00;;;;;;5041437;28;19933;-81
2024/01/09 01:17:58;;;;;;;;;;;11.50;83.00;;;;;;5040462;28;19894;-82
2024/01/09 01:20:23;;;;;;;;;;;11.50;83.00;;;;;;5041607;28;19948;-82
2024/01/09 01:22:49;;;;;;;;;;;11.50;83.00;;;;;;5042230;28;19893;-82
2024/01/09 01:25:14;;;;;;;;;;;11.50;82.90;;;;;;5041865;28;20003;-81
2024/01/09 01:27:40;;;;;;;;;;;11.50;83.00;;;;;;5041924;28;19932;-81
2024/01/09 01:30:05;;;;;;;;;;;11.50;83.00;;;;;;5041602;28;19932;-80
2024/01/09 01:32:31;;;;;;;;;;;11.60;83.10;;;;;;5042261;28;19898;-82
2024/01/09 01:34:57;;;;;;;;;;;11.50;83.00;;;;;;5041422;28;19913;-82
2024/01/09 01:37:22;;;;;;;;;;;11.50;83.00;;;;;;5041015;28;19900;-81
2024/01/09 01:39:47;;;;;;;;;;;11.50;83.00;;;;;;5058849;28;19894;-82
2024/01/09 01:42:13;;;;;;;;;;;11.70;83.10;;;;;;5041665;28;19932;-84
2024/01/09 01:44:39;;;;;;;;;;;11.50;83.00;;;;;;5040085;28;19909;-83
2024/01/09 01:47:05;;;;;;;;;;;11.50;82.90;;;;;;5038988;28;19918;-83
2024/01/09 01:49:30;;;;;;;;;;;11.50;83.50;;;;;;5039683;28;19909;-82
2024/01/09 01:51:57;;;;;;;;;;;11.50;83.00;;;;;;5037649;28;23055;-82
2024/01/09 01:54:23;;;;;;;;;;;11.50;82.90;;;;;;5038244;28;19900;-81
2024/01/09 01:56:50;;;;;;;;;;;11.50;83.00;;;;;;5037645;28;19900;-82
2024/01/09 01:59:16;;;;;;;;;;;11.70;83.00;;;;;;5056547;28;19916;-82
2024/01/09 02:01:45;;;;;;;;;;;11.50;83.00;;;;;;5038350;28;19917;-82
2024/01/09 02:04:11;;;;;;;;;;;11.50;82.90;;;;;;5039079;28;19900;-82
2024/01/09 02:06:37;;;;;;;;;;;11.50;82.90;;;;;;5038730;28;19909;-80
2024/01/09 02:09:05;;;;;;;;;;;11.50;83.00;;;;;;5037627;28;19909;-81
2024/01/09 02:11:31;;;;;;;;;;;11.50;83.00;;;;;;5036684;28;19916;-83
2024/01/09 02:13:57;;;;;;;;;;;11.60;83.00;;;;;;5037470;28;19923;-82
2024/01/09 02:16:23;;;;;;;;;;;12.30;83.30;;;;;;5038787;28;19916;-82
2024/01/09 02:18:48;;;;;;;;;;;11.50;82.90;;;;;;5039032;28;19909;-83
2024/01/09 02:21:14;;;;;;;;;;;11.50;82.90;;;;;;5039019;28;19909;-83
2024/01/09 02:23:39;;;;;;;;;;;11.50;82.90;;;;;;5057260;28;19909;-82
2024/01/09 02:26:05;;;;;;;;;;;11.70;82.90;;;;;;5038257;28;19976;-81
2024/01/09 02:28:33;;;;;;;;;;;11.50;82.80;;;;;;5038820;28;19980;-82
2024/01/09 02:30:59;;;;;;;;;;;11.50;82.90;;;;;;5039274;28;19924;-82
2024/01/09 02:33:27;;;;;;;;;;;11.80;83.00;;;;;;5039301;28;19920;-82
2024/01/09 02:35:53;;;;;;;;;;;12.10;83.20;;;;;;5039445;28;19897;-84
2024/01/09 02:38:18;;;;;;;;;;;11.40;82.80;;;;;;5039754;28;19944;-80
2024/01/09 02:40:44;;;;;;;;;;;11.80;83.00;;;;;;5039881;28;19928;-82
2024/01/09 02:43:09;;;;;;;;;;;11.50;82.90;;;;;;5039826;28;19916;-81
2024/01/09 02:45:35;;;;;;;;;;;11.50;82.80;;;;;;5039186;28;19913;-82
2024/01/09 02:48:00;;;;;;;;;;;12.00;83.10;;;;;;5037492;28;19952;-81
2024/01/09 02:50:26;;;;;;;;;;;11.50;82.90;;;;;;5038397;28;19917;-82
2024/01/09 02:52:51;;;;;;;;;;;11.50;82.90;;;;;;5039069;28;19909;-82
2024/01/09 02:55:17;;;;;;;;;;;11.50;82.80;;;;;;5039950;28;19913;-82
2024/01/09 02:57:42;;;;;;;;;;;11.50;82.80;;;;;;5036176;28;19909;-81
2024/01/09 03:00:08;;;;;;;;;;;11.50;82.80;;;;;;5038241;28;19909;-81
2024/01/09 03:02:34;;;;;;;;;;;11.50;82.80;;;;;;5039431;28;19913;-82
2024/01/09 03:05:00;;;;;;;;;;;11.40;82.80;;;;;;5038373;28;19921;-83
2024/01/09 03:07:26;;;;;;;;;;;11.50;82.80;;;;;;5037568;28;19916;-82
2024/01/09 03:09:51;;;;;;;;;;;11.50;82.80;;;;;;5039875;28;19948;-81
2024/01/09 03:12:16;;;;;;;;;;;11.50;82.80;;;;;;5039027;28;19965;-82
2024/01/09 03:14:42;;;;;;;;;;;11.50;82.80;;;;;;5038450;28;19905;-81
2024/01/09 03:17:07;;;;;;;;;;;11.40;82.70;;;;;;5035774;28;19910;-80
2024/01/09 03:19:33;;;;;;;;;;;11.50;82.80;;;;;;5037192;28;19900;-82
2024/01/09 03:21:58;;;;;;;;;;;11.50;82.80;;;;;;5037993;28;19937;-82
2024/01/09 03:24:24;;;;;;;;;;;11.80;82.90;;;;;;5040363;28;20512;-81
2024/01/09 03:26:49;;;;;;;;;;;11.50;82.80;;;;;;5039400;28;19999;-82
2024/01/09 03:29:18;;;;;;;;;;;11.60;82.80;;;;;;5038654;28;19980;-82
2024/01/09 03:31:43;;;;;;;;;;;11.40;82.70;;;;;;5036707;28;19924;-82
2024/01/09 03:34:09;;;;;;;;;;;11.60;82.80;;;;;;5038422;28;19960;-82
2024/01/09 03:36:35;;;;;;;;;;;11.50;82.70;;;;;;5039603;28;19985;-81
2024/01/09 03:39:03;;;;;;;;;;;11.50;82.80;;;;;;5039473;28;19900;-81
2024/01/09 03:41:32;;;;;;;;;;;11.50;82.70;;;;;;5052717;28;19939;-82
2024/01/09 03:43:58;;;;;;;;;;;11.40;82.60;;;;;;5039368;28;19985;-81
2024/01/09 03:46:24;;;;;;;;;;;11.60;82.70;;;;;;5023095;28;19897;-80
2024/01/09 03:48:49;;;;;;;;;;;11.50;82.70;;;;;;5039748;28;19961;-81
2024/01/09 03:51:15;;;;;;;;;;;11.60;82.70;;;;;;5034665;28;19932;-82
2024/01/09 03:53:43;;;;;;;;;;;11.50;82.70;;;;;;5049061;28;19897;-82
2024/01/09 03:56:10;;;;;;;;;;;11.50;82.70;;;;;;5075734;28;19909;-82
2024/01/09 03:58:36;;;;;;;;;;;11.40;82.60;;;;;;5058100;28;19924;-80
2024/01/09 04:01:01;;;;;;;;;;;11.50;82.70;;;;;;5058882;28;19909;-81
2024/01/09 04:03:27;;;;;;;;;;;11.80;82.80;;;;;;5059176;28;19897;-82
2024/01/09 04:05:54;;;;;;;;;;;11.50;82.70;;;;;;5058777;28;19897;-82
2024/01/09 04:08:19;;;;;;;;;;;11.50;82.70;;;;;;5057740;28;19916;-82
2024/01/09 04:10:45;;;;;;;;;;;11.70;82.70;;;;;;5058508;28;19925;-82
2024/01/09 04:13:10;;;;;;;;;;;11.30;82.60;;;;;;5058691;28;19917;-82
2024/01/09 04:15:36;;;;;;;;;;;11.50;82.70;;;;;;5059589;28;19897;-82
2024/01/09 04:18:02;;;;;;;;;;;11.40;82.60;;;;;;5057711;28;19909;-82
2024/01/09 04:20:28;;;;;;;;;;;11.90;82.90;;;;;;5059231;28;19928;-82
2024/01/09 04:22:53;;;;;;;;;;;11.50;82.70;;;;;;5058287;28;19908;-82
2024/01/09 04:25:19;;;;;;;;;;;11.40;82.60;;;;;;5058598;28;19913;-81
2024/01/09 04:27:44;;;;;;;;;;;12.60;83.20;;;;;;5057448;28;20014;-82
2024/01/09 04:30:10;;;;;;;;;;;11.40;82.50;;;;;;5057299;28;19916;-82
2024/01/09 04:32:36;;;;;;;;;;;11.50;82.60;;;;;;5057239;28;19920;-82
2024/01/09 04:35:03;;;;;;;;;;;11.40;82.50;;;;;;5057311;28;19897;-81
2024/01/09 04:37:33;;;;;;;;;;;11.50;82.50;;;;;;5066694;28;19968;-82
2024/01/09 04:43:02;;;;;;;;;;;11.40;82.50;;;;;;5050726;28;19916;-80
2024/01/09 04:48:38;;;;;;;;;;;11.50;82.60;;;;;;5057975;28;19916;-79
2024/01/09 04:51:20;;;;;;;;;;;;;;;;;;;;;
2024/01/09 04:53:49;;;;;;;;;;;11.40;82.50;;;;;;5056423;28;19917;-80
2024/01/09 04:56:33;;;;;;;;;;;11.40;82.50;;;;;;5037176;28;19919;-79
2024/01/09 05:11:03;;;;;;;;;;;11.40;82.50;;;;;;4964935;29;19909;-81
2024/01/09 05:13:29;;;;;;;;;;;11.50;82.50;;;;;;5039221;28;19924;-79
2024/01/09 05:15:56;;;;;;;;;;;11.40;82.50;;;;;;5044276;28;20269;-82
2024/01/09 05:18:22;;;;;;;;;;;11.70;82.60;;;;;;5041272;28;19971;-80
2024/01/09 05:20:47;;;;;;;;;;;11.40;82.40;;;;;;5043902;28;19909;-82
2024/01/09 05:23:13;;;;;;;;;;;11.50;82.40;;;;;;5039889;28;19995;-81
2024/01/09 05:25:40;;;;;;;;;;;11.50;82.40;;;;;;5060425;28;19915;-80
2024/01/09 05:28:06;;;;;;;;;;;11.40;82.40;;;;;;5041571;28;19908;-80
2024/01/09 05:30:31;;;;;;;;;;;11.50;82.40;;;;;;5042750;28;19960;-80
2024/01/09 05:32:57;;;;;;;;;;;11.20;82.30;;;;;;5059809;28;20369;-80
2024/01/09 05:35:22;;;;;;;;;;;11.80;82.50;;;;;;5041380;28;19958;-79
2024/01/09 05:37:48;;;;;;;;;;;11.40;82.20;;;;;;5040715;28;20384;-80
2024/01/09 05:40:13;;;;;;;;;;;11.40;82.20;;;;;;5041357;28;19913;-81
2024/01/09 05:42:43;;;;;;;;;;;11.60;82.30;;;;;;5059457;28;19909;-81
2024/01/09 05:45:09;;;;;;;;;;;11.40;82.10;;;;;;5042296;28;19931;-82
2024/01/09 05:47:37;;;;;;;;;;;11.30;82.10;;;;;;5042417;28;20320;-83
2024/01/09 05:50:04;;;;;;;;;;;11.40;82.10;;;;;;5042910;28;19948;-83
2024/01/09 05:52:29;;;;;;;;;;;11.50;82.20;;;;;;5042002;28;19909;-82
2024/01/09 05:54:57;;;;;;;;;;;11.50;82.20;;;;;;5050650;28;19920;-81
2024/01/09 05:57:23;;;;;;;;;;;11.40;82.10;;;;;;5026533;28;19910;-82
2024/01/09 05:59:48;;;;;;;;;;;11.60;82.20;;;;;;5038974;28;19952;-80
2024/01/09 06:02:16;;;;;;;;;;;12.70;82.80;;;;;;5064859;28;19916;-82
2024/01/09 06:04:42;;;;;;;;;;;11.60;82.30;;;;;;5044424;28;20298;-81
2024/01/09 06:07:07;;;;;;;;;;;11.50;82.20;;;;;;5044992;28;19931;-81
2024/01/09 06:09:39;;;;;;;;;;;11.50;82.20;;;;;;5061782;28;19909;-80
2024/01/09 06:12:04;;;;;;;;;;;11.50;82.10;;;;;;5043777;28;19942;-81
2024/01/09 06:14:30;;;;;;;;;;;11.50;82.10;;;;;;5044684;28;19909;-81
2024/01/09 06:16:55;;;;;;;;;;;11.50;82.10;;;;;;5044377;28;19909;-81
2024/01/09 06:19:21;;;;;;;;;;;10.80;81.60;;;;;;5044962;28;19913;-81
2024/01/09 06:21:46;;;;;;;;;;;11.50;82.10;;;;;;5045000;28;20415;-81
2024/01/09 06:24:12;;;;;;;;;;;11.40;82.00;;;;;;5045271;28;19916;-81
2024/01/09 06:26:37;;;;;;;;;;;11.50;82.10;;;;;;5062023;28;19908;-81
2024/01/09 06:29:05;;;;;;;;;;;11.50;82.10;;;;;;5045973;28;19959;-82
2024/01/09 06:31:30;;;;;;;;;;;11.60;82.10;;;;;;5045073;28;19912;-82
2024/01/09 06:33:56;;;;;;;;;;;11.50;82.10;;;;;;5046225;28;19936;-81
2024/01/09 06:36:21;;;;;;;;;;;11.50;82.10;;;;;;5046126;28;19916;-82
2024/01/09 06:38:47;;;;;;;;;;;11.50;82.10;;;;;;5047789;28;19909;-82
2024/01/09 06:41:12;;;;;;;;;;;11.50;82.00;;;;;;5045802;28;19959;-82
2024/01/09 06:43:38;;;;;;;;;;;11.60;82.00;;;;;;5046245;28;19972;-81
2024/01/09 06:46:03;;;;;;;;;;;11.60;82.00;;;;;;5046389;28;19905;-80
2024/01/09 06:48:29;;;;;;;;;;;11.50;82.00;;;;;;5063899;28;19909;-82
2024/01/09 06:50:54;;;;;;;;;;;11.50;82.00;;;;;;5048624;28;19917;-80
2024/01/09 06:53:20;;;;;;;;;;;11.50;82.00;;;;;;5050055;28;19996;-82
2024/01/09 06:55:45;;;;;;;;;;;11.50;81.90;;;;;;5066562;28;19909;-80
2024/01/09 06:58:12;;;;;;;;;;;11.30;81.80;;;;;;5048588;28;19908;-81
2024/01/09 07:00:41;;;;;;;;;;;11.60;82.00;;;;;;5050127;28;19909;-83
2024/01/09 07:03:06;;;;;;;;;;;11.50;81.90;;;;;;5050635;28;20369;-81
2024/01/09 07:05:32;;;;;;;;;;;11.60;81.90;;;;;;5049203;28;19915;-82
2024/01/09 07:07:57;;;;;;;;;;;11.50;82.00;;;;;;5053533;28;19951;-81
2024/01/09 07:10:23;;;;;;;;;;;11.50;81.80;;;;;;5056851;28;19917;-82
2024/01/09 07:12:48;;;;;;;;;;;12.50;82.20;;;;;;5056640;28;19917;-83
2024/01/09 07:15:14;;;;;;;;;;;11.60;81.50;;;;;;5055287;28;19931;-81
2024/01/09 07:17:40;;;;;;;;;;;11.50;81.30;;;;;;5054959;28;19909;-82
2024/01/09 07:20:05;;;;;;;;;;;11.50;81.20;;;;;;5056791;28;19962;-83
2024/01/09 07:22:31;;;;;;;;;;;11.50;81.20;;;;;;5056965;28;19900;-82
2024/01/09 07:24:56;;;;;;;;;;;13.10;82.10;;;;;;5074617;28;19909;-82
2024/01/09 07:27:22;;;;;;;;;;;11.70;81.30;;;;;;5056464;28;19932;-81
2024/01/09 07:29:47;;;;;;;;;;;11.50;81.30;;;;;;5056473;28;19909;-81
2024/01/09 07:32:13;;;;;;;;;;;11.60;81.40;;;;;;5056448;28;19996;-82
2024/01/09 07:34:42;;;;;;;;;;;11.50;81.30;;;;;;5057356;28;20308;-82
2024/01/09 07:37:07;;;;;;;;;;;11.50;81.40;;;;;;5073739;28;19931;-82
2024/01/09 07:39:33;;;;;;;;;;;11.50;81.30;;;;;;5057199;28;19913;-81
2024/01/09 07:41:58;;;;;;;;;;;11.50;81.40;;;;;;5056518;28;19909;-82
2024/01/09 07:44:24;;;;;;;;;;;11.60;81.40;;;;;;5057243;28;19920;-82
2024/01/09 07:46:49;;;;;;;;;;;11.50;81.90;;;;;;5056964;28;19917;-81
2024/01/09 07:49:15;;;;;;;;;;;12.00;81.60;;;;;;5057333;28;20285;-82
2024/01/09 07:51:40;;;;;;;;;;;11.60;81.30;;;;;;5056225;28;19917;-80
2024/01/09 07:54:05;;;;;;;;;;;11.90;81.50;;;;;;5036326;28;19970;-80
2024/01/09 07:56:31;;;;;;;;;;;11.60;81.30;;;;;;5035518;28;20424;-81
2024/01/09 07:58:57;;;;;;;;;;;11.80;81.30;;;;;;5037129;28;19909;-80
2024/01/09 08:01:24;;;;;;;;;;;12.40;81.70;;;;;;5035651;28;19939;-81
2024/01/09 08:03:50;;;;;;;;;;;11.60;81.20;;;;;;5037503;28;19916;-80
2024/01/09 08:06:16;;;;;;;;;;;11.60;81.10;;;;;;5037637;28;19978;-81
2024/01/09 08:08:42;;;;;;;;;;;11.70;81.10;;;;;;5038113;28;19894;-81
2024/01/09 08:11:07;;;;;;;;;;;12.20;81.30;;;;;;5038650;28;19897;-82
2024/01/09 08:13:33;;;;;;;;;;;11.70;81.00;;;;;;5038151;28;19949;-80
2024/01/09 08:15:59;;;;;;;;;;;11.80;81.10;;;;;;5037707;28;19924;-81
2024/01/09 08:18:27;;;;;;;;;;;11.90;81.20;;;;;;5038535;28;19911;-82
2024/01/09 08:21:13;;;;;;;;;;;11.80;81.00;;;;;;5047904;28;19952;-81
2024/01/09 08:23:39;;;;;;;;;;;11.80;80.90;;;;;;5038355;28;19929;-81
2024/01/09 08:26:04;;;;;;;;;;;11.90;80.90;;;;;;5038076;28;19917;-82
2024/01/09 08:28:30;;;;;;;;;;;11.90;80.80;;;;;;5038832;28;20290;-82
2024/01/09 08:30:55;;;;;;;;;;;12.00;80.80;;;;;;5054479;28;19920;-82
2024/01/09 08:33:21;;;;;;;;;;;11.90;80.70;;;;;;5037728;28;19898;-81
2024/01/09 08:38:50;;;;;;;;;;;12.00;80.50;;;;;;5054615;28;19992;-81
2024/01/09 08:41:17;;;;;;;;;;;12.20;80.50;;;;;;5035861;28;19913;-82
2024/01/09 08:43:43;;;;;;;;;;;12.10;80.20;;;;;;5035406;28;19917;-82
2024/01/09 08:46:08;;;;;;;;;;;12.10;80.00;;;;;;5035654;28;19909;-81
2024/01/09 08:48:36;;;;;;;;;;;12.20;80.00;;;;;;5054639;28;19913;-82
2024/01/09 08:51:02;;;;;;;;;;;12.30;79.90;;;;;;5036903;28;19913;-82
2024/01/09 08:53:29;;;;;;;;;;;12.30;79.80;;;;;;5037728;28;19909;-81
2024/01/09 08:55:58;;;;;;;;;;;12.30;79.70;;;;;;5053539;28;19940;-82
2024/01/09 08:58:39;;;;;;;;;;;12.30;79.70;;;;;;5037777;28;19909;-82
2024/01/09 09:01:05;;;;;;;;;;;12.30;79.60;;;;;;5052845;28;19913;-82
2024/01/09 09:03:30;;;;;;;;;;;12.60;79.60;;;;;;5033847;28;19963;-82
2024/01/09 09:05:56;;;;;;;;;;;12.40;80.10;;;;;;5034957;28;19910;-82
2024/01/09 09:08:22;;;;;;;;;;;12.40;79.50;;;;;;5033458;28;19948;-83
2024/01/09 09:10:50;;;;;;;;;;;12.40;79.40;;;;;;5033718;28;19939;-81
2024/01/09 09:13:16;;;;;;;;;;;12.40;79.40;;;;;;5034054;28;19924;-83
2024/01/09 09:15:41;;;;;;;;;;;12.50;79.40;;;;;;5034049;28;19925;-83
2024/01/09 09:18:06;;;;;;;;;;;12.50;79.30;;;;;;5035016;28;19905;-83
2024/01/09 09:20:35;;;;;;;;;;;12.60;79.30;;;;;;5033845;28;20374;-82
2024/01/09 09:23:00;;;;;;;;;;;12.50;79.20;;;;;;5051715;28;19916;-82
2024/01/09 09:25:32;;;;;;;;;;;12.60;79.20;;;;;;5035331;28;19913;-81
2024/01/09 09:28:03;;;;;;;;;;;12.60;79.10;;;;;;5032930;28;19913;-83
2024/01/09 09:30:29;;;;;;;;;;;12.60;79.10;;;;;;5036263;28;19913;-84
2024/01/09 09:33:01;;;;;;;;;;;12.70;79.10;;;;;;5034037;28;19917;-83
2024/01/09 09:35:28;;;;;;;;;;;12.70;79.10;;;;;;5036587;28;20301;-83
2024/01/09 09:37:54;;;;;;;;;;;12.70;78.90;;;;;;5030350;28;20352;-83
2024/01/09 09:40:22;;;;;;;;;;;12.70;78.90;;;;;;5027882;28;19996;-83
2024/01/09 09:42:55;;;;;;;;;;;12.80;78.90;;;;;;5024678;28;19988;-81
2024/01/09 09:45:30;;;;;;;;;;;12.80;78.70;;;;;;5023167;28;19916;-82
2024/01/09 09:48:14;;;;;;;;;;;12.80;78.60;;;;;;5039011;28;19956;-83
2024/01/09 09:56:50;;;;;;;;;;;12.90;78.50;;;;;;5041362;28;19916;-80
2024/01/09 09:59:15;;;;;;;;;;;12.90;78.50;;;;;;5037932;28;19913;-83
2024/01/09 10:01:41;;;;;;;;;;;12.90;78.30;;;;;;5019740;28;19913;-83
2024/01/09 10:04:27;;;;;;;;;;;13.00;78.30;;;;;;5018666;28;19916;-83
2024/01/09 10:06:59;;;;;;;;;;;13.00;78.20;;;;;;5035537;28;19909;-81
2024/01/09 10:09:28;;;;;;;;;;;13.00;78.10;;;;;;5017837;28;20274;-83
2024/01/09 10:11:53;;;;;;;;;;;13.00;78.10;;;;;;5017566;28;19943;-82
2024/01/09 10:14:31;;;;;;;;;;;13.00;78.00;;;;;;5017723;28;20016;-82
2024/01/09 10:17:10;;;;;;;;;;;13.00;78.00;;;;;;5017963;28;19960;-83
2024/01/09 10:19:36;;;;;;;;;;;13.00;78.00;;;;;;5018147;28;19913;-83
2024/01/09 10:22:02;;;;;;;;;;;13.10;78.10;;;;;;5035486;28;19909;-83
2024/01/09 10:24:27;;;;;;;;;;;13.10;78.00;;;;;;5018025;28;19916;-83
2024/01/09 10:26:54;;;;;;;;;;;13.10;77.90;;;;;;5017702;28;19916;-82
2024/01/09 10:29:20;;;;;;;;;;;13.10;78.50;;;;;;5017484;28;20077;-82
2024/01/09 10:31:45;;;;;;;;;;;13.10;77.90;;;;;;5017381;28;20359;-81
2024/01/09 10:34:11;;;;;;;;;;;13.10;77.90;;;;;;5017655;28;19916;-83
2024/01/09 10:36:36;;;;;;;;;;;13.10;77.90;;;;;;5017305;28;19924;-83
2024/01/09 10:39:04;;;;;;;;;;;13.10;77.80;;;;;;5017224;28;19909;-84
2024/01/09 10:41:29;;;;;;;;;;;13.10;77.80;;;;;;5016408;28;20430;-82
2024/01/09 10:43:55;;;;;;;;;;;13.20;77.90;;;;;;5017342;28;19989;-82
2024/01/09 10:46:24;;;;;;;;;;;13.20;77.80;;;;;;5017087;28;19909;-82
2024/01/09 10:48:50;;;;;;;;;;;13.20;77.80;;;;;;5017334;28;19909;-82
2024/01/09 10:51:16;;;;;;;;;;;13.20;77.70;;;;;;5017073;28;19924;-82
2024/01/09 10:53:43;;;;;;;;;;;13.20;77.60;;;;;;5017143;28;19909;-84
2024/01/09 10:56:09;;;;;;;;;;;13.20;77.60;;;;;;5016838;28;20008;-84
2024/01/09 10:58:38;;;;;;;;;;;13.20;77.50;;;;;;5017021;28;19940;-84
2024/01/09 11:01:03;;;;;;;;;;;13.30;77.30;;;;;;5016850;28;19909;-84
2024/01/09 11:03:29;;;;;;;;;;;13.30;77.40;;;;;;5017005;28;19916;-84
2024/01/09 11:05:58;;;;;;;;;;;13.30;77.40;;;;;;5016946;28;19909;-84
2024/01/09 11:08:24;;;;;;;;;;;13.30;77.30;;;;;;5016691;28;19948;-84
2024/01/09 11:10:50;;;;;;;;;;;13.30;77.30;;;;;;5016511;28;19990;-84
2024/01/09 11:13:17;;;;;;;;;;;13.30;77.30;;;;;;5016614;28;19913;-83
2024/01/09 11:15:54;;;;;;;;;;;13.30;77.30;;;;;;5016337;28;19916;-82
2024/01/09 11:18:22;;;;;;;;;;;13.30;77.30;;;;;;5016834;28;19949;-83
2024/01/09 11:20:54;;;;;;;;;;;13.30;77.20;;;;;;5016622;28;19909;-83
2024/01/09 11:23:40;;;;;;;;;;;13.40;77.30;;;;;;5016585;28;19955;-84
2024/01/09 11:26:05;;;;;;;;;;;13.40;77.20;;;;;;5034208;28;19913;-83
2024/01/09 11:28:41;;;;;;;;;;;13.40;77.00;;;;;;5016424;28;19916;-84
2024/01/09 11:31:07;;;;;;;;;;;13.40;77.50;;;;;;5016122;28;19979;-83
2024/01/09 11:33:32;;;;;;;;;;;13.40;77.40;;;;;;5016336;28;19952;-84
2024/01/09 11:36:05;;;;;;;;;;;13.40;76.90;;;;;;5016128;28;19909;-83
2024/01/09 11:38:36;;;;;;;;;;;13.40;76.80;;;;;;5016239;28;19909;-84
2024/01/09 11:41:06;;;;;;;;;;;13.50;76.80;;;;;;5016009;28;19909;-84
2024/01/09 11:46:35;;;;;;;;;;;13.50;76.80;;;;;;5033709;28;19944;-84
2024/01/09 11:49:01;;;;;;;;;;;13.50;76.70;;;;;;5016159;28;19909;-83
2024/01/09 11:51:29;;;;;;;;;;;13.50;76.70;;;;;;5016223;28;19920;-83
2024/01/09 11:53:56;;;;;;;;;;;13.50;76.60;;;;;;5016000;28;19987;-81
2024/01/09 11:56:22;;;;;;;;;;;13.50;76.60;;;;;;5015921;28;19997;-82
2024/01/09 11:58:50;;;;;;;;;;;13.60;76.70;;;;;;5016140;28;19963;-83
2024/01/09 12:01:15;;;;;;;;;;;13.60;76.60;;;;;;5016018;28;19920;-83
2024/01/09 12:03:40;;;;;;;;;;;13.60;76.60;;;;;;5015882;28;19909;-83
2024/01/09 12:06:06;;;;;;;;;;;13.50;76.50;;;;;;5015321;28;19916;-82
2024/01/09 12:08:40;;;;;;;;;;;13.60;76.60;;;;;;5017236;28;19913;-82
2024/01/09 12:11:06;;;;;;;;;;;13.60;76.60;;;;;;5015871;28;20051;-83
2024/01/09 12:13:31;;;;;;;;;;;13.60;76.60;;;;;;5015973;28;20004;-83
2024/01/09 12:15:57;;;;;;;;;;;13.50;76.50;;;;;;5015067;28;19956;-83
2024/01/09 12:18:22;;;;;;;;;;;13.50;76.50;;;;;;5015634;28;19909;-83
2024/01/09 12:20:48;;;;;;;;;;;13.50;76.40;;;;;;5015593;28;19959;-83
2024/01/09 12:23:14;;;;;;;;;;;13.50;76.50;;;;;;5016509;28;19952;-83
2024/01/09 12:25:40;;;;;;;;;;;13.50;76.40;;;;;;5015579;28;19909;-82
2024/01/09 12:28:05;;;;;;;;;;;13.50;76.00;;;;;;5015360;28;19948;-82
2024/01/09 12:30:34;;;;;;;;;;;13.50;75.00;;;;;;5015684;28;20718;-83
2024/01/09 12:32:59;;;;;;;;;;;13.50;74.90;;;;;;5015187;28;19909;-83
2024/01/09 12:35:25;;;;;;;;;;;13.50;74.70;;;;;;5015212;28;19913;-83
2024/01/09 12:37:51;;;;;;;;;;;13.50;75.00;;;;;;5015032;28;19971;-82
2024/01/09 12:40:17;;;;;;;;;;;13.50;75.30;;;;;;5015190;28;19909;-82
2024/01/09 12:42:42;;;;;;;;;;;13.50;75.50;;;;;;5015281;28;19910;-82
2024/01/09 12:45:10;;;;;;;;;;;13.50;75.70;;;;;;5015247;28;20088;-83
2024/01/09 12:47:36;;;;;;;;;;;13.50;75.80;;;;;;5015140;28;20004;-83
2024/01/09 12:50:03;;;;;;;;;;;13.50;75.90;;;;;;5015266;28;20490;-83
2024/01/09 12:52:30;;;;;;;;;;;13.50;75.80;;;;;;5015080;28;19919;-83
2024/01/09 12:54:55;;;;;;;;;;;13.50;75.80;;;;;;5015339;28;20011;-84
2024/01/09 12:57:20;;;;;;;;;;;13.60;75.80;;;;;;5023357;28;19940;-82
2024/01/09 12:59:47;;;;;;;;;;;13.60;75.70;;;;;;5034685;28;19909;-83
2024/01/09 13:02:12;;;;;;;;;;;13.60;75.60;;;;;;5031509;28;19917;-83
2024/01/09 13:04:38;;;;;;;;;;;13.60;75.60;;;;;;5032923;28;19913;-82
2024/01/09 13:07:03;;;;;;;;;;;13.60;75.80;;;;;;5019031;28;19920;-83
2024/01/09 13:09:29;;;;;;;;;;;13.60;75.90;;;;;;5024379;28;19920;-83
2024/01/09 13:11:55;;;;;;;;;;;13.60;76.00;;;;;;5038843;28;19912;-83
2024/01/09 13:14:20;;;;;;;;;;;13.60;76.00;;;;;;5038931;28;20572;-83
2024/01/09 13:16:46;;;;;;;;;;;13.70;76.20;;;;;;5038780;28;19943;-82
2024/01/09 13:19:13;;;;;;;;;;;13.60;76.10;;;;;;5038965;28;19909;-83
2024/01/09 13:21:39;;;;;;;;;;;13.60;76.00;;;;;;5039058;28;20373;-83
2024/01/09 13:24:05;;;;;;;;;;;13.60;76.10;;;;;;5039515;28;20003;-82
2024/01/09 13:26:31;;;;;;;;;;;13.50;76.20;;;;;;5028680;28;19915;-83
2024/01/09 13:28:56;;;;;;;;;;;13.50;76.20;;;;;;5019172;28;19909;-83
2024/01/09 13:31:22;;;;;;;;;;;13.50;76.20;;;;;;5019183;28;20301;-83
2024/01/09 13:33:47;;;;;;;;;;;13.50;76.20;;;;;;5019023;28;20000;-83
2024/01/09 13:36:13;;;;;;;;;;;13.50;76.20;;;;;;5018666;28;19910;-83
2024/01/09 13:38:38;;;;;;;;;;;13.50;76.40;;;;;;5018572;28;20381;-83
2024/01/09 13:41:04;;;;;;;;;;;13.40;76.30;;;;;;5022223;28;19912;-84
2024/01/09 13:43:30;;;;;;;;;;;13.40;76.40;;;;;;5038650;28;19909;-83
2024/01/09 13:45:57;;;;;;;;;;;13.40;76.50;;;;;;5038177;28;19912;-83
2024/01/09 13:48:23;;;;;;;;;;;13.40;76.50;;;;;;5038290;28;19909;-83
2024/01/09 13:50:48;;;;;;;;;;;13.40;76.60;;;;;;5037780;28;19917;-83
2024/01/09 13:53:15;;;;;;;;;;;13.40;76.70;;;;;;5022737;28;19913;-82
2024/01/09 13:55:41;;;;;;;;;;;13.40;76.70;;;;;;5018229;28;19913;-82
2024/01/09 13:58:06;;;;;;;;;;;13.40;76.80;;;;;;5035980;28;19913;-83
2024/01/09 14:00:32;;;;;;;;;;;13.40;76.90;;;;;;5038089;28;19909;-83
2024/01/09 14:02:59;;;;;;;;;;;13.30;77.00;;;;;;5036113;28;19908;-84
2024/01/09 14:05:25;;;;;;;;;;;13.30;77.10;;;;;;5036990;28;20315;-83
2024/01/09 14:07:51;;;;;;;;;;;13.20;77.10;;;;;;5036829;28;19912;-83
2024/01/09 14:10:17;;;;;;;;;;;13.40;77.30;;;;;;5036727;28;20003;-84
2024/01/09 14:12:42;;;;;;;;;;;13.20;77.30;;;;;;5036078;28;19912;-82
2024/01/09 14:15:08;;;;;;;;;;;13.30;77.40;;;;;;5034492;28;20308;-81
2024/01/09 14:17:34;;;;;;;;;;;13.30;77.40;;;;;;5036496;28;19966;-82
2024/01/09 14:20:00;;;;;;;;;;;13.30;77.40;;;;;;5036780;28;19916;-82
2024/01/09 14:22:26;;;;;;;;;;;13.20;77.30;;;;;;5036392;28;19924;-82
2024/01/09 14:24:52;;;;;;;;;;;13.20;77.40;;;;;;5036973;28;19912;-83
2024/01/09 14:27:18;;;;;;;;;;;13.20;77.40;;;;;;5036260;28;20449;-82
2024/01/09 14:29:44;;;;;;;;;;;13.20;77.50;;;;;;5035551;28;19909;-81
2024/01/09 14:32:10;;;;;;;;;;;13.20;77.60;;;;;;5035175;28;19915;-81
2024/01/09 14:34:35;;;;;;;;;;;13.20;77.70;;;;;;5036468;28;19916;-82
2024/01/09 14:37:01;;;;;;;;;;;13.10;77.80;;;;;;5035868;28;19909;-82
2024/01/09 14:39:27;;;;;;;;;;;13.10;77.80;;;;;;5035454;28;20043;-80
2024/01/09 14:41:53;;;;;;;;;;;13.10;77.80;;;;;;5032902;28;20004;-81
2024/01/09 14:44:18;;;;;;;;;;;13.10;77.80;;;;;;5036209;28;20020;-80
2024/01/09 14:46:50;;;;;;;;;;;13.10;77.90;;;;;;5018682;28;19910;-84